Winston Salem, NC (27106)

6:33 PM EDT on September 04, 2015 (GMT -0400)
Sunny Dell Lakes | | Change Station
CLOSE
Current Station
Personal Weather Station
Location: Winston-Salem, NC
Elevation: 774 ft
Nearby Weather Stations

Elev 774 ft 36.14 °N, 80.33 °W | Updated 14 seconds ago

Mostly Cloudy
Mostly Cloudy
79.6 °F
Feels Like 83 °F
N
1.0
Wind Variable Wind from NNE
Gusts 1.0 mph

Today
High -- | Low -- °F
--% Chance of Precip.
Yesterday
High -- | Low -- °F
Precip. -- in
6:55 AM 7:45 PM
Waning Gibbous, 55% visible
Pressure 30.05 in
Visibility 3.0 miles
Clouds Scattered Clouds 3300 ft
Mostly Cloudy 8000 ft
Overcast 11000 ft
Heat Index 83 °F
Dew Point 71 °F
Humidity 75%
Rainfall 0.02 in
Snow Depth Not available.
UV 0.0 out of 12
Pollen 8.90 out of 12
Air Quality Not available.
Flu Activity Not available.
SPECI KINT 042227Z 09004KT 3SM TSRA BR SCT033 BKN080 OVC110 23/21 A3005 RMK AO2 PK WND 02038/2158 LTG DSNT ALQDS RAB2159 P0052 T02280206
Pressure 30.05 in
Visibility 3.0 miles
Clouds Scattered Clouds 3300 ft
Mostly Cloudy 8000 ft
Overcast 11000 ft
Heat Index 83 °F
Dew Point 71 °F
Humidity 75%
Rainfall 0.02 in
Snow Depth Not available.
UV 0.0 out of 12
Pollen 8.90 out of 12
Air Quality Not available.
Flu Activity Not available.
SPECI KINT 042227Z 09004KT 3SM TSRA BR SCT033 BKN080 OVC110 23/21 A3005 RMK AO2 PK WND 02038/2158 LTG DSNT ALQDS RAB2159 P0052 T02280206

10-Day Weather Forecast

×

Almanac

Astronomy

Sep. 04, 2015 Rise Set
Actual Time
Civil Twilight
Nautical Twilight
Astronomical Twilight
Moon
Length of Visible Light
Length of Day
Tomorrow will be .
, % of the Moon is Illuminated

Today's Extremes

State Highs State Lows

Community

WunderPhotos

Upload Photos

1,852,319 photos uploaded!

WunderBlogs® & News

Nearby

Air Quality

  Air Quality AQ Index Pollutant
Not available.

Snow Depth

Station Depth Elevation

Earthquake Activity

City Distance Mag. Time & Date
Minimum magnitude displayed is 2.5.

Coastal Water Temperatures

Place Temperature

Stations

Nearby Weather Stations

Station Location Temp. Windchill Dew Point Humidity Wind Precip. Elev Updated Type